Time;durP1;ratioP1;P1;durP2;ratioP2;P2;SDS_P1;SDS_P2;PMS_P1;PMS_P2;Temp;Humidity;BMP_temperature;BMP_pressure;BME280_temperature;BME280_humidity;BME280_pressure;Samples;Min_cycle;Max_cycle;Signal;HPM_P1;HPM_P2
2023/11/29 00:01:24;;;;;;;0.70;0.70;;;1.60;99.90;;;;;;4989624;28;20068;-79
2023/11/29 00:03:50;;;;;;;7.65;1.65;;;1.60;99.90;;;;;;4987060;28;20050;-71
2023/11/29 00:06:16;;;;;;;5.93;1.83;;;1.60;99.90;;;;;;4987015;28;20050;-66
2023/11/29 00:08:42;;;;;;;2.60;1.73;;;1.70;99.90;;;;;;4989057;28;20046;-67
2023/11/29 00:11:07;;;;;;;1.98;1.20;;;1.70;99.90;;;;;;4989585;28;20041;-83
2023/11/29 00:13:33;;;;;;;2.50;1.80;;;1.70;99.90;;;;;;4989219;28;20057;-66
2023/11/29 00:15:59;;;;;;;2.47;2.00;;;1.80;99.90;;;;;;5007234;28;20096;-84
2023/11/29 00:18:25;;;;;;;1.73;1.63;;;1.80;99.90;;;;;;4990189;28;20050;-65
2023/11/29 00:20:51;;;;;;;0.82;0.82;;;1.80;99.90;;;;;;5006304;28;20255;-66
2023/11/29 00:23:16;;;;;;;3.63;1.35;;;1.80;99.90;;;;;;5006769;28;20127;-76
2023/11/29 00:25:42;;;;;;;1.92;1.13;;;1.80;99.90;;;;;;4988648;28;20560;-87
2023/11/29 00:28:08;;;;;;;4.28;1.45;;;1.80;99.90;;;;;;4989456;28;20044;-71
2023/11/29 00:30:34;;;;;;;2.25;1.60;;;1.80;99.90;;;;;;4989215;28;20519;-79
2023/11/29 00:33:00;;;;;;;0.63;0.35;;;1.80;99.90;;;;;;4949082;28;1128760;-71
2023/11/29 00:35:26;;;;;;;1.08;0.98;;;1.90;99.90;;;;;;4991006;28;20128;-66
2023/11/29 00:37:52;;;;;;;1.52;1.00;;;1.90;99.90;;;;;;5006946;28;20396;-66
2023/11/29 00:40:17;;;;;;;2.53;1.08;;;1.90;99.90;;;;;;4984496;28;20050;-66
2023/11/29 00:42:44;;;;;;;4.10;0.75;;;1.90;99.90;;;;;;4998654;28;20050;-83
2023/11/29 00:45:10;;;;;;;0.80;0.80;;;1.90;99.90;;;;;;4985566;28;20064;-74
2023/11/29 00:47:36;;;;;;;1.83;0.68;;;1.80;99.90;;;;;;4986636;28;20517;-66
2023/11/29 00:50:02;;;;;;;0.77;0.50;;;1.80;99.90;;;;;;4986733;28;20054;-69
2023/11/29 00:52:28;;;;;;;0.30;0.30;;;1.80;99.90;;;;;;5008536;28;20046;-66
2023/11/29 00:54:54;;;;;;;0.55;0.52;;;1.80;99.90;;;;;;4988215;28;20136;-67
2023/11/29 00:57:20;;;;;;;0.82;0.80;;;1.70;99.90;;;;;;5008535;28;20053;-66
2023/11/29 00:59:46;;;;;;;1.48;1.10;;;1.80;99.90;;;;;;4989199;28;20045;-74
2023/11/29 01:02:12;;;;;;;0.50;0.50;;;1.70;99.90;;;;;;4953058;28;20515;-66
2023/11/29 01:04:37;;;;;;;0.82;0.82;;;1.60;99.90;;;;;;5002085;28;20057;-66
2023/11/29 01:07:03;;;;;;;0.70;0.70;;;1.60;99.90;;;;;;4989566;28;20057;-66
2023/11/29 01:09:29;;;;;;;1.38;0.98;;;1.60;99.90;;;;;;5004534;28;20081;-66
2023/11/29 01:11:55;;;;;;;0.93;0.77;;;1.50;99.90;;;;;;4989810;28;20053;-66
2023/11/29 01:14:21;;;;;;;2.75;1.08;;;1.50;99.90;;;;;;4989256;28;20084;-66
2023/11/29 01:16:47;;;;;;;0.43;0.43;;;1.50;99.90;;;;;;5006397;28;20077;-69
2023/11/29 01:19:13;;;;;;;1.13;1.13;;;1.40;99.90;;;;;;5001577;28;20042;-72
2023/11/29 01:21:39;;;;;;;0.40;0.40;;;1.50;99.90;;;;;;4989025;28;20046;-66
2023/11/29 01:24:05;;;;;;;1.17;1.00;;;1.40;99.90;;;;;;4989383;28;20054;-66
2023/11/29 01:26:32;;;;;;;0.70;0.70;;;1.30;99.90;;;;;;4989000;28;20447;-65
2023/11/29 01:28:58;;;;;;;0.50;0.50;;;1.30;99.90;;;;;;4986975;28;20544;-66
2023/11/29 01:31:26;;;;;;;0.52;0.52;;;1.30;99.90;;;;;;5007544;28;20085;-66
2023/11/29 01:33:53;;;;;;;2.30;0.70;;;1.30;99.90;;;;;;5005862;28;20054;-83
2023/11/29 01:36:19;;;;;;;0.90;0.90;;;1.30;99.90;;;;;;4997736;28;20085;-75
2023/11/29 01:38:45;;;;;;;0.90;0.90;;;1.30;99.90;;;;;;4989106;28;20077;-66
2023/11/29 01:41:10;;;;;;;1.15;1.08;;;1.30;99.90;;;;;;4988799;28;20042;-73
2023/11/29 01:43:36;;;;;;;0.13;0.13;;;1.30;99.90;;;;;;5007026;28;20532;-77
2023/11/29 01:46:03;;;;;;;0.70;0.63;;;1.30;99.90;;;;;;4972316;28;20046;-72
2023/11/29 01:48:30;;;;;;;0.05;0.05;;;1.30;99.90;;;;;;5007638;28;20050;-66
2023/11/29 01:50:57;;;;;;;0.55;0.55;;;1.30;99.90;;;;;;5005632;28;20061;-66
2023/11/29 01:53:27;;;;;;;0.40;0.40;;;1.20;99.90;;;;;;5006876;28;20044;-68
2023/11/29 01:55:53;;;;;;;0.40;0.40;;;1.20;99.90;;;;;;5005680;28;20050;-66
2023/11/29 01:58:20;;;;;;;0.73;0.40;;;1.20;99.90;;;;;;4989650;28;20507;-73
2023/11/29 02:00:47;;;;;;;1.60;0.50;;;1.20;99.90;;;;;;4988117;28;20107;-65
2023/11/29 02:03:13;;;;;;;0.28;0.28;;;1.20;99.90;;;;;;4998335;28;20046;-72
2023/11/29 02:05:39;;;;;;;0.43;0.43;;;1.20;99.90;;;;;;4983575;28;20071;-66
2023/11/29 02:08:05;;;;;;;0.20;0.20;;;1.10;99.90;;;;;;4988720;28;20058;-66
2023/11/29 02:10:33;;;;;;;0.20;0.20;;;1.20;99.90;;;;;;4989051;28;20077;-66
2023/11/29 02:12:58;;;;;;;0.28;0.20;;;1.20;99.90;;;;;;4988859;28;20504;-66
2023/11/29 02:15:24;;;;;;;0.15;0.15;;;1.20;99.90;;;;;;4987928;28;20041;-66
2023/11/29 02:17:50;;;;;;;0.35;0.35;;;1.30;99.90;;;;;;5006586;28;20082;-67
2023/11/29 02:20:17;;;;;;;0.22;0.22;;;1.30;99.90;;;;;;5004521;28;20100;-81
2023/11/29 02:23:13;;;;;;;0.52;0.50;;;1.30;99.90;;;;;;5006122;28;20034;-66
2023/11/29 02:25:39;;;;;;;0.57;0.57;;;1.30;99.90;;;;;;4994932;28;20069;-66
2023/11/29 02:28:04;;;;;;;0.32;0.15;;;1.40;99.90;;;;;;5005423;28;20058;-66
2023/11/29 02:30:30;;;;;;;0.57;0.57;;;1.30;99.90;;;;;;4988057;28;20065;-66
2023/11/29 02:32:56;;;;;;;1.02;0.50;;;1.40;99.90;;;;;;5005985;28;20042;-66
2023/11/29 02:35:21;;;;;;;0.40;0.40;;;1.30;99.90;;;;;;4997135;28;20520;-66
2023/11/29 02:37:47;;;;;;;0.75;0.55;;;1.40;99.90;;;;;;5001268;28;20050;-82
2023/11/29 02:40:13;;;;;;;0.60;0.60;;;1.30;99.90;;;;;;4998233;28;20096;-66
2023/11/29 02:42:39;;;;;;;0.10;0.10;;;1.40;99.90;;;;;;5003687;28;20542;-65
2023/11/29 02:45:05;;;;;;;0.35;0.30;;;1.30;99.90;;;;;;4970074;28;20065;-88
2023/11/29 02:47:31;;;;;;;0.45;0.30;;;1.30;99.90;;;;;;4996162;28;20132;-65
2023/11/29 02:49:56;;;;;;;0.40;0.40;;;1.10;99.90;;;;;;4996471;28;20090;-79
2023/11/29 02:52:22;;;;;;;0.40;0.40;;;1.00;99.90;;;;;;5003202;28;20125;-65
2023/11/29 02:54:48;;;;;;;0.47;0.47;;;1.00;99.90;;;;;;5000162;28;20050;-72
2023/11/29 02:57:13;;;;;;;0.38;0.32;;;1.00;99.90;;;;;;4988828;28;20117;-81
2023/11/29 02:59:39;;;;;;;0.40;0.40;;;1.00;99.90;;;;;;4972495;28;20060;-83
2023/11/29 03:02:05;;;;;;;0.70;0.70;;;1.00;99.90;;;;;;4994341;28;20089;-84
2023/11/29 03:04:31;;;;;;;0.13;0.13;;;1.00;99.90;;;;;;4993947;28;20048;-67
2023/11/29 03:06:56;;;;;;;0.95;0.43;;;1.00;99.90;;;;;;4998926;28;20493;-65
2023/11/29 03:09:22;;;;;;;0.40;0.40;;;1.00;99.90;;;;;;4991513;28;20093;-66
2023/11/29 03:11:48;;;;;;;0.57;0.57;;;1.00;99.90;;;;;;4972134;28;20062;-67
2023/11/29 03:14:13;;;;;;;0.70;0.70;;;1.00;99.90;;;;;;4995942;28;20835;-76
2023/11/29 03:16:39;;;;;;;0.68;0.68;;;1.10;99.90;;;;;;4971974;28;20477;-66
2023/11/29 03:19:05;;;;;;;2.05;1.08;;;1.10;99.90;;;;;;4969297;28;20054;-66
2023/11/29 03:21:30;;;;;;;1.15;1.00;;;1.00;99.90;;;;;;4990454;28;20143;-81
2023/11/29 03:23:56;;;;;;;1.05;0.75;;;1.00;99.90;;;;;;5002346;28;20077;-66
2023/11/29 03:26:22;;;;;;;0.90;0.90;;;1.10;99.90;;;;;;5002578;28;20044;-66
2023/11/29 03:28:47;;;;;;;1.08;0.82;;;1.10;99.90;;;;;;4990835;28;20038;-66
2023/11/29 03:31:13;;;;;;;1.15;1.08;;;1.10;99.90;;;;;;5006430;28;20085;-69
2023/11/29 03:33:39;;;;;;;3.35;1.27;;;1.10;99.90;;;;;;5009135;28;20112;-66
2023/11/29 03:36:06;;;;;;;1.20;1.10;;;1.10;99.90;;;;;;5008202;28;20088;-66
2023/11/29 03:38:32;;;;;;;1.15;1.15;;;1.20;99.90;;;;;;5008339;28;20054;-88
2023/11/29 03:40:58;;;;;;;0.75;0.75;;;1.30;99.90;;;;;;4991507;28;20049;-66
2023/11/29 03:43:24;;;;;;;1.10;0.98;;;1.20;99.90;;;;;;5008021;28;20093;-66
2023/11/29 03:45:49;;;;;;;0.65;0.65;;;1.30;99.90;;;;;;4990903;28;20148;-74
2023/11/29 03:48:15;;;;;;;2.35;0.90;;;1.20;99.90;;;;;;4991010;28;20128;-66
2023/11/29 03:50:41;;;;;;;1.00;0.88;;;1.30;99.90;;;;;;5008668;28;20489;-73
2023/11/29 03:53:06;;;;;;;0.70;0.70;;;1.30;99.90;;;;;;4989561;28;20042;-66
2023/11/29 03:55:32;;;;;;;1.70;0.82;;;1.30;99.90;;;;;;5008224;28;20067;-78
2023/11/29 03:57:58;;;;;;;0.95;0.88;;;1.30;99.90;;;;;;4991846;28;20425;-66
2023/11/29 04:00:23;;;;;;;0.47;0.47;;;1.40;99.90;;;;;;5008029;28;20033;-75
2023/11/29 04:02:49;;;;;;;1.13;0.73;;;1.40;99.90;;;;;;4990828;28;20042;-78
2023/11/29 04:05:15;;;;;;;2.05;0.88;;;1.30;99.90;;;;;;5007639;28;20132;-66
2023/11/29 04:07:41;;;;;;;1.02;0.75;;;1.40;99.90;;;;;;5008793;28;20120;-72
2023/11/29 04:10:07;;;;;;;1.45;0.75;;;1.50;99.90;;;;;;5007698;28;20046;-66
2023/11/29 04:12:33;;;;;;;1.20;0.40;;;1.40;99.90;;;;;;4994552;28;21288;-76
2023/11/29 04:14:58;;;;;;;1.17;0.35;;;1.50;99.90;;;;;;5008125;28;20050;-73
2023/11/29 04:17:24;;;;;;;0.45;0.45;;;1.40;99.90;;;;;;4984637;28;20105;-66
2023/11/29 04:19:49;;;;;;;0.20;0.20;;;1.50;99.90;;;;;;4971089;28;20455;-69
2023/11/29 04:22:15;;;;;;;0.20;0.20;;;1.40;99.90;;;;;;4988905;28;20137;-80
2023/11/29 04:24:41;;;;;;;0.65;0.35;;;1.50;99.90;;;;;;4989618;28;20044;-66
2023/11/29 04:27:07;;;;;;;0.40;0.40;;;1.40;99.90;;;;;;4990288;28;20058;-73
2023/11/29 04:29:32;;;;;;;0.55;0.55;;;1.40;99.90;;;;;;4989007;28;20085;-66
2023/11/29 04:31:58;;;;;;;0.30;0.30;;;1.30;99.90;;;;;;4987511;28;20054;-66
2023/11/29 04:34:24;;;;;;;0.65;0.47;;;1.20;99.90;;;;;;4992621;28;20050;-72
2023/11/29 04:36:50;;;;;;;0.25;0.25;;;1.20;99.90;;;;;;4990631;28;20472;-78
2023/11/29 04:39:15;;;;;;;0.95;0.55;;;1.20;99.90;;;;;;4996475;28;20065;-66
2023/11/29 04:41:42;;;;;;;0.40;0.40;;;1.20;99.90;;;;;;4986976;28;20049;-80
2023/11/29 04:44:09;;;;;;;0.65;0.52;;;1.20;99.90;;;;;;4988901;28;20519;-73
2023/11/29 04:46:35;;;;;;;0.73;0.60;;;1.20;99.90;;;;;;4993631;28;20038;-67
2023/11/29 04:49:01;;;;;;;0.60;0.38;;;1.20;99.90;;;;;;4996839;28;20404;-66
2023/11/29 04:51:26;;;;;;;0.40;0.40;;;1.20;99.90;;;;;;4982351;28;20053;-74
2023/11/29 04:53:53;;;;;;;0.40;0.40;;;1.20;99.90;;;;;;4988386;28;20121;-76
2023/11/29 04:56:18;;;;;;;0.80;0.57;;;1.30;99.90;;;;;;4985706;28;20046;-66
2023/11/29 04:58:46;;;;;;;0.38;0.38;;;1.20;99.90;;;;;;4989205;28;20038;-72
2023/11/29 05:01:12;;;;;;;0.47;0.47;;;1.30;99.90;;;;;;5005082;28;20515;-66
2023/11/29 05:03:39;;;;;;;0.13;0.13;;;1.30;99.90;;;;;;4990657;28;20046;-87
2023/11/29 05:06:06;;;;;;;0.40;0.40;;;1.40;99.90;;;;;;4998287;28;20555;-66
2023/11/29 05:08:32;;;;;;;2.78;0.73;;;1.30;99.90;;;;;;4999492;28;20647;-66
2023/11/29 05:11:00;;;;;;;0.60;0.60;;;1.30;99.90;;;;;;5001713;28;20054;-75
2023/11/29 05:13:26;;;;;;;0.45;0.45;;;1.40;99.90;;;;;;4986798;28;20465;-83
2023/11/29 05:15:52;;;;;;;0.65;0.65;;;1.30;99.90;;;;;;4971399;28;20125;-66
2023/11/29 05:18:17;;;;;;;0.63;0.63;;;1.30;99.90;;;;;;4999275;28;20046;-66
2023/11/29 05:20:43;;;;;;;0.60;0.60;;;1.30;99.90;;;;;;4998442;28;20042;-82
2023/11/29 05:23:09;;;;;;;1.02;0.80;;;1.40;99.90;;;;;;4987862;28;20068;-66
2023/11/29 05:25:35;;;;;;;0.75;0.75;;;1.40;99.90;;;;;;4986751;28;20108;-77
2023/11/29 05:28:00;;;;;;;0.70;0.70;;;1.40;99.90;;;;;;5004920;28;20046;-81
2023/11/29 05:30:26;;;;;;;1.40;0.80;;;1.40;99.90;;;;;;4999093;28;20073;-85
2023/11/29 05:32:52;;;;;;;1.05;0.80;;;1.40;99.90;;;;;;5004783;28;20037;-66
2023/11/29 05:35:17;;;;;;;1.90;0.98;;;1.40;99.90;;;;;;4990426;28;20074;-73
2023/11/29 05:37:43;;;;;;;1.17;0.90;;;1.40;99.90;;;;;;4998684;28;20710;-72
2023/11/29 05:40:09;;;;;;;0.80;0.80;;;1.40;99.90;;;;;;4985102;28;20556;-66
2023/11/29 05:42:35;;;;;;;0.73;0.73;;;1.40;99.90;;;;;;5005765;28;20088;-66
2023/11/29 05:45:03;;;;;;;0.80;0.80;;;1.40;99.90;;;;;;4985711;28;20051;-66
2023/11/29 05:47:30;;;;;;;1.10;0.93;;;1.40;99.90;;;;;;4994108;28;20053;-66
2023/11/29 05:49:55;;;;;;;1.77;1.10;;;1.40;99.90;;;;;;4981794;28;20500;-75
2023/11/29 05:52:21;;;;;;;1.02;1.00;;;1.50;99.90;;;;;;4992579;28;20042;-82
2023/11/29 05:54:47;;;;;;;0.80;0.80;;;1.30;99.90;;;;;;4988641;28;20456;-66
2023/11/29 05:57:13;;;;;;;3.80;1.42;;;1.40;99.90;;;;;;4973365;28;20046;-86
2023/11/29 05:59:40;;;;;;;0.75;0.75;;;1.30;99.90;;;;;;5000574;28;20049;-67
2023/11/29 06:02:06;;;;;;;0.90;0.90;;;1.30;99.90;;;;;;4984091;28;20057;-66
2023/11/29 06:04:32;;;;;;;0.98;0.98;;;1.40;99.90;;;;;;4981486;28;20046;-66
2023/11/29 06:06:58;;;;;;;1.70;0.73;;;1.30;99.90;;;;;;5002886;28;20052;-66
2023/11/29 06:09:28;;;;;;;2.63;1.80;;;1.40;99.90;;;;;;5002232;28;20041;-73
2023/11/29 06:12:00;;;;;;;0.45;0.45;;;1.40;99.90;;;;;;4992802;28;20497;-66
2023/11/29 06:14:26;;;;;;;2.92;1.77;;;1.40;99.90;;;;;;4988912;28;20046;-74
2023/11/29 06:16:52;;;;;;;2.95;1.58;;;1.40;99.90;;;;;;4988351;28;20050;-72
2023/11/29 06:19:17;;;;;;;15.25;9.48;;;1.40;99.90;;;;;;4987596;28;20089;-65
2023/11/29 06:21:44;;;;;;;9.48;5.07;;;1.40;99.90;;;;;;5005180;28;20481;-77
2023/11/29 06:24:10;;;;;;;3.90;2.58;;;1.50;99.90;;;;;;4992829;28;20056;-81
2023/11/29 06:26:37;;;;;;;16.85;5.15;;;1.50;99.90;;;;;;4999625;28;20530;-67
2023/11/29 06:29:04;;;;;;;7.13;2.42;;;1.60;99.90;;;;;;5000008;28;20553;-66
2023/11/29 06:31:31;;;;;;;3.95;2.65;;;1.70;99.90;;;;;;4988014;28;20046;-67
2023/11/29 06:33:57;;;;;;;8.55;4.15;;;1.80;99.90;;;;;;4988883;28;20049;-86
2023/11/29 06:36:23;;;;;;;10.93;5.22;;;2.00;99.90;;;;;;5001017;28;20429;-66
2023/11/29 06:38:48;;;;;;;8.25;3.60;;;2.00;99.90;;;;;;4988771;28;20039;-75
2023/11/29 06:41:15;;;;;;;2.70;2.50;;;2.00;99.90;;;;;;5004268;28;20049;-80
2023/11/29 06:43:41;;;;;;;2.50;2.30;;;2.00;99.90;;;;;;4975717;28;20046;-67
2023/11/29 06:46:07;;;;;;;5.80;2.95;;;2.00;99.90;;;;;;5004823;28;20056;-86
2023/11/29 06:48:32;;;;;;;3.42;2.45;;;2.00;99.90;;;;;;4990672;28;20034;-82
2023/11/29 06:51:00;;;;;;;4.25;2.22;;;2.00;99.90;;;;;;4975880;28;20050;-66
2023/11/29 06:53:26;;;;;;;6.60;4.22;;;1.90;99.90;;;;;;5001255;28;20050;-86
2023/11/29 06:55:53;;;;;;;2.05;1.88;;;1.90;99.90;;;;;;4988914;28;20169;-66
2023/11/29 06:58:20;;;;;;;5.53;2.65;;;1.90;99.90;;;;;;4964763;28;20072;-82
2023/11/29 07:00:46;;;;;;;8.27;2.88;;;2.00;99.90;;;;;;4999271;28;20081;-66
2023/11/29 07:03:13;;;;;;;7.18;4.18;;;1.90;99.90;;;;;;4991352;28;20065;-81
2023/11/29 07:05:40;;;;;;;9.00;3.60;;;1.80;99.90;;;;;;4990350;28;20916;-66
2023/11/29 07:08:06;;;;;;;6.18;2.90;;;1.90;99.90;;;;;;4976633;28;20146;-74
2023/11/29 07:10:33;;;;;;;7.03;3.55;;;1.90;99.90;;;;;;4990149;28;20441;-66
2023/11/29 07:13:00;;;;;;;7.50;3.83;;;1.80;99.90;;;;;;5002606;28;20046;-67
2023/11/29 07:15:26;;;;;;;7.15;2.33;;;1.80;99.90;;;;;;4991076;28;20057;-66
2023/11/29 07:17:53;;;;;;;8.60;3.60;;;1.80;99.90;;;;;;4996694;28;20076;-67
2023/11/29 07:20:19;;;;;;;7.80;4.60;;;1.80;99.90;;;;;;4991697;28;20412;-67
2023/11/29 07:22:45;;;;;;;3.67;1.73;;;1.60;99.90;;;;;;4988167;28;20425;-67
2023/11/29 07:25:12;;;;;;;4.47;2.42;;;1.60;99.90;;;;;;5005651;28;20038;-67
2023/11/29 07:27:39;;;;;;;4.60;2.22;;;1.60;99.90;;;;;;4988754;28;20092;-67
2023/11/29 07:30:06;;;;;;;3.78;2.67;;;1.50;99.90;;;;;;4973753;28;20712;-67
2023/11/29 07:32:32;;;;;;;2.85;2.60;;;1.50;99.90;;;;;;4988006;28;20417;-66
2023/11/29 07:34:58;;;;;;;6.07;3.40;;;1.60;99.90;;;;;;4990909;28;20062;-67
2023/11/29 07:37:23;;;;;;;6.32;2.60;;;1.60;99.90;;;;;;4976148;28;20053;-66
2023/11/29 07:39:49;;;;;;;2.50;1.83;;;1.70;99.90;;;;;;4973361;28;20042;-67
2023/11/29 07:42:15;;;;;;;2.35;1.83;;;1.70;99.90;;;;;;5008634;28;20064;-66
2023/11/29 07:44:41;;;;;;;3.40;2.90;;;1.70;99.90;;;;;;4993676;28;20143;-68
2023/11/29 07:47:07;;;;;;;7.50;3.13;;;1.70;99.90;;;;;;5000798;28;20039;-68
2023/11/29 07:49:33;;;;;;;4.68;2.90;;;1.70;99.90;;;;;;4988438;28;20050;-77
2023/11/29 07:51:59;;;;;;;2.30;1.88;;;1.80;99.90;;;;;;4985922;28;20550;-67
2023/11/29 07:54:25;;;;;;;8.85;2.55;;;1.80;99.90;;;;;;4982814;28;20089;-67
2023/11/29 07:56:51;;;;;;;4.22;1.20;;;1.80;99.90;;;;;;5004016;28;20082;-67
2023/11/29 07:59:20;;;;;;;4.43;2.10;;;1.80;99.90;;;;;;4975467;28;20492;-67
2023/11/29 08:01:46;;;;;;;7.63;2.20;;;1.90;99.90;;;;;;4989670;28;20080;-67
2023/11/29 08:04:12;;;;;;;2.08;1.83;;;1.90;99.90;;;;;;5008708;28;20399;-67
2023/11/29 08:06:37;;;;;;;2.72;2.50;;;1.90;99.90;;;;;;5007172;28;20080;-67
2023/11/29 08:09:03;;;;;;;1.80;1.23;;;1.90;99.90;;;;;;5007969;28;20042;-67
2023/11/29 08:11:29;;;;;;;3.03;1.55;;;1.90;99.90;;;;;;5003513;28;20069;-68
2023/11/29 08:13:55;;;;;;;2.58;1.80;;;1.90;99.90;;;;;;4989124;28;20053;-67
2023/11/29 08:16:21;;;;;;;3.38;2.10;;;2.00;99.90;;;;;;5006585;28;20049;-67
2023/11/29 08:18:46;;;;;;;3.72;2.05;;;1.90;99.90;;;;;;5007717;28;20042;-67
2023/11/29 08:21:13;;;;;;;3.80;1.98;;;2.00;99.90;;;;;;4990359;28;20045;-67
2023/11/29 08:23:38;;;;;;;2.97;1.58;;;2.00;99.90;;;;;;5003255;28;20104;-67
2023/11/29 08:26:04;;;;;;;2.33;1.73;;;2.00;99.90;;;;;;5008427;28;20085;-67
2023/11/29 08:28:30;;;;;;;4.65;1.58;;;1.90;99.90;;;;;;5007857;28;20381;-67
2023/11/29 08:30:56;;;;;;;2.65;1.63;;;1.90;99.90;;;;;;5006650;28;20042;-85
2023/11/29 08:33:22;;;;;;;6.20;2.33;;;1.90;99.90;;;;;;5000462;28;20512;-67
2023/11/29 08:35:48;;;;;;;2.10;1.48;;;1.90;99.90;;;;;;5006373;28;20492;-66
2023/11/29 08:38:14;;;;;;;3.78;2.10;;;1.90;99.90;;;;;;4989591;28;20088;-87
2023/11/29 08:40:40;;;;;;;6.10;1.90;;;1.90;99.90;;;;;;5004014;28;20045;-74
2023/11/29 08:43:06;;;;;;;2.05;1.33;;;1.80;99.90;;;;;;5006344;28;20560;-67
2023/11/29 08:45:32;;;;;;;11.80;1.60;;;1.80;99.90;;;;;;5006981;28;20077;-67
2023/11/29 08:47:59;;;;;;;4.28;1.80;;;1.80;99.90;;;;;;4996915;28;20046;-82
2023/11/29 08:50:24;;;;;;;1.45;1.35;;;1.80;99.90;;;;;;4983742;28;20386;-67
2023/11/29 08:52:51;;;;;;;4.05;1.40;;;1.80;99.90;;;;;;4998150;28;20157;-86
2023/11/29 08:55:17;;;;;;;3.45;1.88;;;1.90;99.90;;;;;;4986670;28;20077;-76
2023/11/29 08:57:43;;;;;;;2.80;1.48;;;1.90;99.90;;;;;;5005660;28;20053;-67
2023/11/29 09:00:09;;;;;;;4.10;1.75;;;1.90;99.90;;;;;;4987099;28;20041;-80
2023/11/29 09:02:36;;;;;;;6.65;1.40;;;1.90;99.90;;;;;;5006283;28;20570;-67
2023/11/29 09:05:04;;;;;;;3.55;1.13;;;2.00;99.90;;;;;;5007502;28;20128;-73
2023/11/29 09:07:30;;;;;;;3.17;1.48;;;2.00;99.90;;;;;;4989291;28;20128;-67
2023/11/29 09:09:58;;;;;;;5.68;1.67;;;2.00;99.90;;;;;;5006989;28;20041;-67
2023/11/29 09:12:25;;;;;;;3.00;1.55;;;2.00;99.90;;;;;;4988968;28;20050;-70
2023/11/29 09:14:55;;;;;;;2.65;1.00;;;2.10;99.90;;;;;;4999765;28;20054;-67
2023/11/29 09:17:22;;;;;;;1.45;1.20;;;2.10;99.90;;;;;;4997178;28;20435;-67
2023/11/29 09:19:49;;;;;;;4.10;1.08;;;2.20;99.90;;;;;;4992583;28;20049;-81
2023/11/29 09:22:15;;;;;;;4.53;1.50;;;2.40;99.90;;;;;;5000729;28;20085;-73
2023/11/29 09:24:41;;;;;;;4.75;1.10;;;2.30;99.90;;;;;;5008211;28;20496;-72
2023/11/29 09:27:06;;;;;;;2.78;1.13;;;2.30;99.90;;;;;;4968814;28;20578;-82
2023/11/29 09:29:35;;;;;;;6.00;1.10;;;2.30;99.90;;;;;;5001829;28;20056;-67
2023/11/29 09:32:01;;;;;;;1.75;0.93;;;2.30;99.90;;;;;;4993285;28;20575;-83
2023/11/29 09:34:27;;;;;;;2.72;1.10;;;2.40;99.90;;;;;;5006962;28;20181;-67
2023/11/29 09:36:54;;;;;;;3.95;1.23;;;2.30;99.90;;;;;;5005262;28;20045;-67
2023/11/29 09:39:20;;;;;;;5.20;1.25;;;2.40;99.90;;;;;;5006593;28;20048;-67
2023/11/29 09:41:46;;;;;;;2.38;0.90;;;2.30;99.90;;;;;;5003500;28;20046;-80
2023/11/29 09:44:13;;;;;;;1.98;1.10;;;2.30;99.90;;;;;;4984513;28;20049;-77
2023/11/29 09:46:39;;;;;;;2.45;0.93;;;2.30;99.90;;;;;;4988499;28;20493;-66
2023/11/29 09:49:05;;;;;;;2.63;0.82;;;2.30;99.90;;;;;;5004705;28;20050;-66
2023/11/29 09:51:32;;;;;;;10.95;1.33;;;2.30;99.90;;;;;;5004278;28;21374;-78
2023/11/29 09:53:58;;;;;;;2.80;0.73;;;2.20;99.90;;;;;;5004444;28;20127;-67
2023/11/29 09:56:23;;;;;;;2.90;1.05;;;2.20;99.90;;;;;;5002504;28;20046;-67
2023/11/29 09:58:49;;;;;;;1.35;0.70;;;2.20;99.90;;;;;;5004941;28;20034;-66
2023/11/29 10:01:15;;;;;;;1.13;0.98;;;2.20;99.90;;;;;;5000104;28;20056;-68
2023/11/29 10:03:42;;;;;;;1.85;0.77;;;2.30;99.90;;;;;;5001277;28;20070;-67
2023/11/29 10:06:08;;;;;;;2.50;0.68;;;2.20;99.90;;;;;;5003624;28;20488;-80
2023/11/29 10:08:35;;;;;;;4.95;0.95;;;2.30;99.90;;;;;;5005318;28;20404;-66
2023/11/29 10:11:01;;;;;;;0.60;0.60;;;2.20;99.90;;;;;;5003929;28;20508;-66
2023/11/29 10:13:28;;;;;;;4.95;1.40;;;2.30;99.90;;;;;;5004502;28;20447;-66
2023/11/29 10:15:55;;;;;;;1.25;0.68;;;2.30;99.90;;;;;;5006699;28;20574;-66
2023/11/29 10:18:21;;;;;;;2.42;0.80;;;2.30;99.90;;;;;;5008093;28;20069;-66
2023/11/29 10:20:49;;;;;;;0.85;0.73;;;2.40;99.90;;;;;;4991422;28;20085;-66
2023/11/29 10:23:15;;;;;;;2.50;0.95;;;2.50;99.90;;;;;;5008200;28;20065;-66
2023/11/29 10:25:43;;;;;;;0.80;0.73;;;2.50;99.90;;;;;;5007767;28;20050;-67
2023/11/29 10:28:08;;;;;;;2.28;1.00;;;2.50;99.90;;;;;;5007103;28;20045;-86
2023/11/29 10:30:34;;;;;;;1.23;0.65;;;2.60;99.90;;;;;;5004876;28;20046;-66
2023/11/29 10:33:03;;;;;;;0.40;0.30;;;2.70;53.40;;;;;;5007125;28;20515;-85
2023/11/29 10:35:35;;;;;;;2.10;0.73;;;2.80;47.30;;;;;;5006409;28;20058;-66
2023/11/29 10:38:21;;;;;;;3.05;1.10;;;2.80;32.20;;;;;;4990332;28;20543;-66
2023/11/29 10:40:48;;;;;;;3.92;0.80;;;2.90;27.80;;;;;;5008799;28;20105;-66
2023/11/29 10:43:21;;;;;;;0.70;0.70;;;2.90;28.90;;;;;;5009099;28;20050;-66
2023/11/29 10:45:49;;;;;;;4.15;0.77;;;2.80;27.30;;;;;;4988928;28;20054;-65
2023/11/29 10:48:20;;;;;;;3.08;0.80;;;2.90;32.80;;;;;;5007216;28;20527;-68
2023/11/29 10:50:50;;;;;;;8.10;0.90;;;3.00;29.40;;;;;;4985496;28;20046;-87
2023/11/29 10:53:19;;;;;;;2.33;0.63;;;3.00;33.80;;;;;;5007058;28;20042;-66
2023/11/29 10:55:47;;;;;;;1.55;0.40;;;2.90;22.10;;;;;;4988721;28;20460;-88
2023/11/29 10:58:23;;;;;;;2.50;1.02;;;2.90;20.00;;;;;;5006078;28;20532;-66
2023/11/29 11:00:49;;;;;;;2.88;0.63;;;2.90;25.30;;;;;;4963916;28;20081;-66
2023/11/29 11:03:41;;;;;;;2.22;0.68;;;2.90;18.20;;;;;;5006072;28;20508;-75
2023/11/29 11:06:21;;;;;;;7.28;0.73;;;3.00;20.20;;;;;;5007247;28;20092;-66
2023/11/29 11:08:48;;;;;;;1.88;0.60;;;3.00;14.40;;;;;;5005638;28;20038;-65
2023/11/29 11:11:38;;;;;;;1.23;0.60;;;3.00;15.90;;;;;;5000298;28;20037;-83
2023/11/29 11:14:09;;;;;;;2.38;0.95;;;2.90;9.60;;;;;;5008680;28;20045;-65
2023/11/29 11:16:59;;;;;;;0.60;0.40;;;2.90;9.10;;;;;;5005780;28;20591;-66
2023/11/29 11:19:42;;;;;;;0.95;0.50;;;2.80;1.00;;;;;;4997199;28;20057;-66
2023/11/29 11:22:28;;;;;;;2.22;0.77;;;2.80;1.00;;;;;;5006911;28;20049;-73
2023/11/29 11:24:58;;;;;;;1.08;0.30;;;2.90;1.00;;;;;;4994318;28;20478;-66
2023/11/29 11:27:28;;;;;;;0.30;0.30;;;3.10;1.00;;;;;;5005796;28;20038;-87
2023/11/29 11:30:32;;;;;;;1.97;0.37;;;3.20;1.00;;;;;;5008190;28;20038;-65
2023/11/29 11:32:58;;;;;;;5.22;0.60;;;3.10;1.00;;;;;;4943189;28;20090;-65
2023/11/29 11:36:03;;;;;;;1.23;0.50;;;3.10;1.00;;;;;;4996377;28;20476;-68
2023/11/29 11:38:29;;;;;;;0.95;0.38;;;3.00;1.00;;;;;;5003499;28;20057;-65
2023/11/29 11:41:26;;;;;;;3.05;0.38;;;3.00;1.00;;;;;;5006433;28;20409;-65
2023/11/29 11:43:52;;;;;;;4.65;0.70;;;2.90;1.00;;;;;;5007679;28;20050;-65
2023/11/29 11:46:19;;;;;;;1.35;0.63;;;2.80;1.00;;;;;;5005271;28;20053;-69
2023/11/29 11:48:45;;;;;;;0.82;0.45;;;2.80;1.00;;;;;;4998767;23;20054;-76
2023/11/29 11:51:12;;;;;;;5.05;0.38;;;2.70;1.00;;;;;;4986138;28;20089;-65
2023/11/29 11:53:42;;;;;;;1.75;0.50;;;2.80;1.00;;;;;;4981934;28;20038;-72
2023/11/29 11:56:19;;;;;;;2.47;0.60;;;2.80;1.00;;;;;;5007260;28;20042;-66
2023/11/29 11:59:00;;;;;;;1.50;0.40;;;2.80;1.00;;;;;;5009416;28;20034;-65
2023/11/29 12:01:29;;;;;;;2.15;0.65;;;2.80;1.00;;;;;;5004505;28;20046;-65
2023/11/29 12:03:56;;;;;;;0.98;0.68;;;2.80;1.00;;;;;;5015295;28;20046;-65
2023/11/29 12:06:22;;;;;;;1.65;0.47;;;2.80;1.00;;;;;;5001920;28;20037;-71
2023/11/29 12:08:48;;;;;;;0.65;0.40;;;2.80;1.00;;;;;;4994873;28;20052;-65
2023/11/29 12:12:09;;;;;;;1.02;0.40;;;2.80;1.00;;;;;;4993062;28;20074;-82
2023/11/29 12:14:39;;;;;;;0.50;0.43;;;2.70;1.00;;;;;;5032737;23;20127;-65
2023/11/29 12:20:49;;;;;;;2.35;0.50;;;2.70;1.00;;;;;;5037555;23;20064;-65
2023/11/29 12:23:41;;;;;;;1.08;0.40;;;2.70;1.00;;;;;;5024371;28;20521;-66
2023/11/29 12:26:14;;;;;;;0.85;0.30;;;2.80;1.00;;;;;;5014273;28;20049;-79
2023/11/29 12:28:49;;;;;;;1.65;0.30;;;2.90;1.00;;;;;;5028177;23;20472;-75
2023/11/29 12:31:49;;;;;;;5.57;0.60;;;3.00;1.00;;;;;;5030920;23;20054;-68
2023/11/29 12:38:39;;;;;;;1.35;0.40;;;3.30;1.00;;;;;;5027688;23;20059;-63
2023/11/29 12:41:13;;;;;;;0.30;0.22;;;3.40;1.00;;;;;;5034484;23;20072;-63
2023/11/29 12:47:10;;;;;;;0.98;0.40;;;3.50;1.00;;;;;;5022569;28;20095;-65
2023/11/29 12:50:00;;;;;;;0.38;0.38;;;3.70;1.00;;;;;;5032096;28;20450;-65
2023/11/29 12:56:38;;;;;;;1.92;0.68;;;3.90;1.00;;;;;;5010862;28;20420;-66
2023/11/29 13:20:54;;;;;;;0.88;0.73;;;3.20;1.00;;;;;;5015933;28;20099;-68
2023/11/29 13:23:20;;;;;;;0.40;0.40;;;3.00;1.00;;;;;;4998842;28;20056;-64
2023/11/29 13:25:47;;;;;;;3.35;0.52;;;3.00;1.00;;;;;;5005456;28;20424;-64
2023/11/29 13:28:13;;;;;;;1.00;0.63;;;2.90;1.00;;;;;;4955564;28;20508;-65
2023/11/29 13:30:39;;;;;;;0.45;0.45;;;2.80;1.00;;;;;;4996157;28;20121;-64
2023/11/29 13:33:05;;;;;;;0.65;0.50;;;2.80;1.00;;;;;;5003332;28;20045;-80
2023/11/29 13:35:31;;;;;;;1.33;0.52;;;2.80;1.00;;;;;;4985025;28;20412;-64
2023/11/29 13:37:57;;;;;;;0.80;0.40;;;2.70;1.00;;;;;;5007207;28;21223;-67